Time;durP1;ratioP1;P1;durP2;ratioP2;P2;SDS_P1;SDS_P2;PMS_P1;PMS_P2;Temp;Humidity;BMP_temperature;BMP_pressure;BME280_temperature;BME280_humidity;BME280_pressure;Samples;Min_cycle;Max_cycle;Signal;HPM_P1;HPM_P2
2022/08/06 00:01:51;;;;;;;12.23;10.05;;;19.10;99.90;;;;;;4998193;28;20097;-60
2022/08/06 00:04:18;;;;;;;15.65;9.82;;;18.90;99.90;;;;;;4998290;28;20149;-60
2022/08/06 00:06:44;;;;;;;12.95;9.80;;;19.00;99.90;;;;;;4998255;28;20030;-60
2022/08/06 00:09:11;;;;;;;12.15;10.43;;;18.90;99.90;;;;;;4996997;28;20054;-60
2022/08/06 00:11:38;;;;;;;11.02;9.95;;;18.90;99.90;;;;;;4978720;28;20031;-60
2022/08/06 00:14:04;;;;;;;12.05;9.73;;;18.90;99.90;;;;;;4978538;28;20030;-60
2022/08/06 00:16:31;;;;;;;11.35;9.43;;;18.80;99.90;;;;;;4978608;28;20495;-60
2022/08/06 00:18:56;;;;;;;10.85;9.40;;;18.80;99.90;;;;;;4978532;28;20043;-60
2022/08/06 00:21:22;;;;;;;11.52;9.55;;;18.80;99.90;;;;;;4978634;28;20035;-60
2022/08/06 00:23:48;;;;;;;10.10;8.93;;;18.90;99.90;;;;;;4978423;28;20031;-60
2022/08/06 00:26:14;;;;;;;13.13;9.93;;;18.90;99.90;;;;;;4978032;28;20022;-60
2022/08/06 00:28:40;;;;;;;10.25;9.18;;;18.90;99.90;;;;;;4977657;28;20077;-60
2022/08/06 00:31:07;;;;;;;16.52;9.90;;;18.80;99.90;;;;;;4978463;28;20042;-60
2022/08/06 00:33:34;;;;;;;11.23;9.65;;;18.90;99.90;;;;;;4975253;28;20034;-60
2022/08/06 00:36:00;;;;;;;11.90;9.15;;;18.80;99.90;;;;;;4978372;28;20441;-60
2022/08/06 00:38:26;;;;;;;10.32;8.63;;;18.70;99.90;;;;;;4978223;28;20038;-60
2022/08/06 00:40:53;;;;;;;12.18;9.40;;;18.70;99.90;;;;;;4978386;28;20027;-60
2022/08/06 00:43:19;;;;;;;14.20;9.55;;;18.80;99.90;;;;;;4978153;28;20519;-60
2022/08/06 00:45:45;;;;;;;13.07;9.77;;;18.70;99.90;;;;;;4978300;28;20085;-60
2022/08/06 00:48:13;;;;;;;9.75;8.73;;;18.60;99.90;;;;;;4977038;28;20030;-60
2022/08/06 00:50:39;;;;;;;10.98;9.30;;;18.60;99.90;;;;;;4978241;28;20031;-60
2022/08/06 00:53:05;;;;;;;11.63;8.77;;;18.50;99.90;;;;;;4977999;28;20027;-60
2022/08/06 00:55:31;;;;;;;12.73;9.55;;;18.60;99.90;;;;;;4977902;28;20424;-60
2022/08/06 00:57:57;;;;;;;13.10;9.90;;;18.50;99.90;;;;;;4978034;28;20030;-60
2022/08/06 01:00:23;;;;;;;14.35;10.20;;;18.50;99.90;;;;;;4997430;28;20033;-60
2022/08/06 01:02:49;;;;;;;13.10;9.98;;;18.40;99.90;;;;;;4997216;28;20452;-60
2022/08/06 01:05:15;;;;;;;13.38;10.57;;;18.40;99.90;;;;;;4997051;28;20042;-60
2022/08/06 01:07:41;;;;;;;11.45;8.88;;;18.40;99.90;;;;;;4997194;28;20098;-60
2022/08/06 01:10:07;;;;;;;12.00;10.02;;;18.40;99.90;;;;;;4988081;28;20031;-60
2022/08/06 01:12:33;;;;;;;16.45;10.95;;;18.50;99.90;;;;;;4977774;28;20037;-60
2022/08/06 01:14:59;;;;;;;15.10;9.93;;;18.40;99.90;;;;;;4977603;28;20424;-60
2022/08/06 01:17:37;;;;;;;15.55;11.80;;;18.30;99.90;;;;;;4977465;28;20465;-60
2022/08/06 01:20:41;;;;;;;18.08;11.65;;;18.40;99.90;;;;;;4977448;28;20396;-60
2022/08/06 01:23:11;;;;;;;12.40;10.32;;;18.30;99.90;;;;;;4977552;28;20070;-60
2022/08/06 01:26:01;;;;;;;14.60;11.40;;;18.20;99.90;;;;;;4977404;28;20027;-60
2022/08/06 01:28:37;;;;;;;13.02;11.50;;;18.10;99.90;;;;;;4977409;28;20034;-60
2022/08/06 01:31:14;;;;;;;14.43;11.70;;;18.10;99.90;;;;;;4977244;28;20037;-60
2022/08/06 01:33:49;;;;;;;15.98;11.10;;;18.10;99.90;;;;;;4977240;28;20468;-60
2022/08/06 01:36:22;;;;;;;16.08;11.95;;;18.00;99.90;;;;;;4977250;28;20033;-60
2022/08/06 01:38:52;;;;;;;15.73;12.30;;;18.10;99.90;;;;;;4976712;28;20034;-60
2022/08/06 01:41:38;;;;;;;14.07;12.35;;;18.10;99.90;;;;;;4976989;28;20081;-60
2022/08/06 01:44:09;;;;;;;16.83;12.20;;;18.00;99.90;;;;;;4977063;28;20031;-60
2022/08/06 01:46:36;;;;;;;;;;;18.00;99.90;;;;;;4977357;28;20113;-60
2022/08/06 01:49:04;;;;;;;11.85;10.65;;;18.00;99.90;;;;;;4976981;28;20005;-60
2022/08/06 01:51:33;;;;;;;14.35;11.02;;;18.00;99.90;;;;;;4976885;28;20035;-60
2022/08/06 01:54:01;;;;;;;19.17;11.30;;;18.00;99.90;;;;;;4976762;28;20424;-60
2022/08/06 01:56:30;;;;;;;15.18;11.10;;;17.90;99.90;;;;;;4976843;28;20495;-60
2022/08/06 01:58:57;;;;;;;16.63;11.25;;;17.90;99.90;;;;;;4984899;28;20118;-60
2022/08/06 02:01:24;;;;;;;13.70;11.52;;;17.90;99.90;;;;;;4996221;28;20145;-60
2022/08/06 02:03:54;;;;;;;12.93;10.55;;;17.80;99.90;;;;;;4995865;28;20436;-60
2022/08/06 02:06:26;;;;;;;16.38;11.23;;;17.70;99.90;;;;;;4995854;28;20026;-60
2022/08/06 02:08:54;;;;;;;19.33;12.80;;;17.70;99.90;;;;;;4996152;28;20042;-60
2022/08/06 02:11:20;;;;;;;16.35;11.35;;;17.60;99.90;;;;;;4977294;28;20131;-60
2022/08/06 02:13:48;;;;;;;14.38;12.13;;;17.50;99.90;;;;;;4976409;28;20034;-60
2022/08/06 02:16:15;;;;;;;15.77;10.68;;;17.50;99.90;;;;;;4976352;28;20066;-60
2022/08/06 02:18:45;;;;;;;13.73;11.57;;;17.60;99.90;;;;;;4976199;28;20033;-60
2022/08/06 02:21:19;;;;;;;14.60;12.07;;;17.50;99.90;;;;;;4976369;28;20026;-60
2022/08/06 02:23:47;;;;;;;14.32;11.50;;;17.50;99.90;;;;;;4976525;28;20062;-60
2022/08/06 02:26:15;;;;;;;19.02;10.88;;;17.40;99.90;;;;;;4976420;28;20424;-60
2022/08/06 02:28:43;;;;;;;16.08;10.82;;;17.30;99.90;;;;;;4976246;28;20034;-60
2022/08/06 02:31:09;;;;;;;13.35;11.30;;;17.30;99.90;;;;;;4975995;28;20031;-60
2022/08/06 02:33:36;;;;;;;12.88;11.20;;;17.30;99.90;;;;;;4976281;28;20106;-60
2022/08/06 02:36:09;;;;;;;11.73;10.52;;;17.30;99.90;;;;;;4976042;28;20109;-60
2022/08/06 02:38:45;;;;;;;14.80;11.32;;;17.30;99.90;;;;;;4976002;28;20086;-60
2022/08/06 02:41:35;;;;;;;16.38;10.90;;;17.10;99.90;;;;;;4976086;28;20077;-60
2022/08/06 02:44:30;;;;;;;13.02;10.73;;;17.10;99.90;;;;;;4958869;28;20066;-60
2022/08/06 02:47:08;;;;;;;15.43;10.98;;;17.10;99.90;;;;;;4950512;28;20051;-60
2022/08/06 02:49:40;;;;;;;12.32;11.02;;;17.00;99.90;;;;;;4975429;28;20030;-60
2022/08/06 02:52:26;;;;;;;12.60;11.32;;;17.10;99.90;;;;;;4975880;28;20425;-60
2022/08/06 02:55:07;;;;;;;13.98;10.93;;;17.10;99.90;;;;;;4975894;28;20054;-60
2022/08/06 02:57:38;;;;;;;16.70;11.90;;;17.10;99.90;;;;;;4975765;28;20031;-60
2022/08/06 03:00:08;;;;;;;11.88;10.73;;;17.10;99.90;;;;;;4992888;28;20022;-60
2022/08/06 03:02:40;;;;;;;13.13;11.75;;;17.10;99.90;;;;;;4995180;28;20022;-60
2022/08/06 03:05:10;;;;;;;14.27;10.65;;;17.00;99.90;;;;;;4994976;28;20050;-60
2022/08/06 03:07:39;;;;;;;14.25;11.23;;;17.00;99.90;;;;;;4995093;28;20030;-60
2022/08/06 03:10:07;;;;;;;13.02;11.23;;;16.90;99.90;;;;;;4986273;28;20058;-60
2022/08/06 03:12:35;;;;;;;13.65;10.85;;;17.00;99.90;;;;;;4975629;28;20030;-60
2022/08/06 03:15:03;;;;;;;16.38;11.18;;;17.00;99.90;;;;;;4975928;28;20546;-60
2022/08/06 03:17:31;;;;;;;14.63;11.48;;;17.00;99.90;;;;;;4975549;28;20031;-60
2022/08/06 03:19:59;;;;;;;11.80;10.60;;;17.00;99.90;;;;;;4975657;28;20035;-60
2022/08/06 03:22:28;;;;;;;13.85;11.10;;;16.90;99.90;;;;;;4975635;28;20034;-60
2022/08/06 03:24:55;;;;;;;15.90;11.15;;;17.00;99.90;;;;;;4975639;28;20027;-60
2022/08/06 03:27:21;;;;;;;18.25;11.45;;;17.00;99.90;;;;;;4975392;28;20109;-59
2022/08/06 03:29:49;;;;;;;16.63;10.55;;;17.00;99.90;;;;;;4975461;28;20031;-60
2022/08/06 03:32:16;;;;;;;14.23;11.10;;;17.00;99.90;;;;;;4975533;28;20034;-60
2022/08/06 03:34:44;;;;;;;15.40;10.25;;;17.00;99.90;;;;;;4975629;28;20476;-60
2022/08/06 03:37:12;;;;;;;14.38;10.65;;;17.00;99.90;;;;;;4975607;28;20030;-59
2022/08/06 03:39:41;;;;;;;15.68;10.30;;;17.00;99.90;;;;;;4975336;28;20030;-59
2022/08/06 03:42:07;;;;;;;15.93;10.93;;;16.90;99.90;;;;;;4975301;28;20034;-59
2022/08/06 03:44:33;;;;;;;14.77;10.50;;;17.00;99.90;;;;;;4975434;28;20035;-59
2022/08/06 03:47:06;;;;;;;13.52;10.80;;;16.90;99.90;;;;;;4975304;28;20027;-59
2022/08/06 03:50:01;;;;;;;11.82;10.52;;;16.90;99.90;;;;;;4975216;28;20026;-59
2022/08/06 03:52:29;;;;;;;15.10;9.35;;;16.90;99.90;;;;;;4975233;28;20476;-60
2022/08/06 03:55:01;;;;;;;13.77;9.90;;;16.90;99.90;;;;;;4975229;28;20093;-60
2022/08/06 03:57:32;;;;;;;15.77;10.10;;;16.90;99.90;;;;;;4975465;28;20089;-59
2022/08/06 04:00:00;;;;;;;10.63;9.52;;;16.90;99.90;;;;;;4991422;28;20035;-59
2022/08/06 04:02:39;;;;;;;13.30;10.25;;;16.90;99.90;;;;;;4997296;28;20022;-59
2022/08/06 04:05:06;;;;;;;20.63;12.20;;;16.90;99.90;;;;;;4998236;28;20281;-59
2022/08/06 04:07:33;;;;;;;16.67;11.85;;;16.90;99.90;;;;;;4998200;28;20031;-59
2022/08/06 04:10:00;;;;;;;13.18;10.63;;;16.90;99.90;;;;;;4990222;28;20023;-60
2022/08/06 04:12:28;;;;;;;22.38;13.82;;;17.00;99.90;;;;;;4978744;28;20042;-59
2022/08/06 04:14:55;;;;;;;22.48;12.43;;;17.10;99.90;;;;;;4978686;28;20570;-60
2022/08/06 04:17:22;;;;;;;15.55;11.70;;;17.10;99.90;;;;;;4978557;28;20029;-59
2022/08/06 04:19:49;;;;;;;18.40;11.68;;;17.20;99.90;;;;;;4978671;28;20039;-60
2022/08/06 04:22:15;;;;;;;15.52;11.23;;;17.20;99.90;;;;;;4978519;28;20420;-59
2022/08/06 04:24:41;;;;;;;13.35;11.00;;;17.30;99.90;;;;;;4978609;28;20473;-59
2022/08/06 04:27:09;;;;;;;19.05;11.38;;;17.30;99.90;;;;;;4978356;28;20362;-59
2022/08/06 04:29:37;;;;;;;17.92;11.63;;;17.40;99.90;;;;;;4978353;28;20468;-59
2022/08/06 04:32:05;;;;;;;17.38;12.15;;;17.40;99.90;;;;;;4978264;28;20396;-59
2022/08/06 04:34:33;;;;;;;16.65;11.40;;;17.60;99.90;;;;;;4978295;28;20066;-59
2022/08/06 04:37:01;;;;;;;15.25;10.88;;;17.60;99.90;;;;;;4978296;28;20031;-59
2022/08/06 04:39:28;;;;;;;20.15;11.70;;;17.60;99.90;;;;;;4978113;28;20038;-59
2022/08/06 04:41:54;;;;;;;16.83;11.88;;;17.70;99.90;;;;;;4978199;28;20019;-59
2022/08/06 04:44:20;;;;;;;18.20;11.70;;;17.70;99.90;;;;;;4978050;28;20385;-59
2022/08/06 04:46:49;;;;;;;18.13;11.70;;;17.80;99.90;;;;;;4978094;28;20039;-59
2022/08/06 04:49:16;;;;;;;14.38;11.93;;;17.90;99.90;;;;;;4978107;28;20085;-59
2022/08/06 04:51:46;;;;;;;18.58;11.23;;;18.10;99.90;;;;;;4978084;28;20103;-59
2022/08/06 04:54:14;;;;;;;17.05;11.25;;;18.10;99.90;;;;;;4977917;28;20113;-59
2022/08/06 04:56:40;;;;;;;16.88;11.52;;;18.20;99.90;;;;;;4977958;28;20102;-59
2022/08/06 04:59:06;;;;;;;19.17;11.50;;;18.30;99.90;;;;;;4987495;28;20034;-59
2022/08/06 05:01:32;;;;;;;14.98;10.55;;;18.40;99.90;;;;;;4997354;28;20033;-59
2022/08/06 05:03:58;;;;;;;14.25;10.80;;;18.50;99.90;;;;;;4979445;28;20042;-59
2022/08/06 05:06:45;;;;;;;18.50;11.30;;;18.60;99.90;;;;;;4997355;28;20060;-59
2022/08/06 05:09:22;;;;;;;20.35;10.70;;;18.60;99.90;;;;;;4995918;28;20026;-59
2022/08/06 05:12:01;;;;;;;18.02;12.13;;;18.70;99.90;;;;;;4977678;28;20039;-59
2022/08/06 05:14:42;;;;;;;17.85;11.02;;;18.90;99.90;;;;;;4977077;28;20110;-60
2022/08/06 05:17:11;;;;;;;16.02;9.77;;;18.90;99.90;;;;;;4977554;28;20061;-59
2022/08/06 05:19:52;;;;;;;13.15;10.43;;;19.00;99.90;;;;;;4977385;28;20031;-59
2022/08/06 05:22:19;;;;;;;;;;;19.20;99.90;;;;;;4977706;28;20034;-59
2022/08/06 05:24:47;;;;;;;22.17;12.43;;;19.30;99.90;;;;;;4977403;28;19910;-59
2022/08/06 05:27:14;;;;;;;14.25;10.38;;;19.30;99.90;;;;;;4977264;28;20026;-59
2022/08/06 05:29:41;;;;;;;27.55;11.60;;;19.50;99.90;;;;;;4976012;28;20404;-59
2022/08/06 05:32:07;;;;;;;19.05;11.00;;;19.50;99.90;;;;;;4977341;28;20035;-59
2022/08/06 05:34:33;;;;;;;16.65;10.23;;;19.60;99.90;;;;;;4977175;28;20392;-59
2022/08/06 05:36:59;;;;;;;18.48;9.82;;;19.80;99.90;;;;;;4977161;28;20031;-59
2022/08/06 05:39:25;;;;;;;11.85;9.63;;;19.80;99.90;;;;;;4977064;28;20038;-59
2022/08/06 05:41:51;;;;;;;36.50;11.70;;;20.00;99.90;;;;;;4976909;28;20065;-59
2022/08/06 05:44:17;;;;;;;17.05;9.73;;;20.20;99.90;;;;;;4959637;28;20039;-59
2022/08/06 05:46:52;;;;;;;16.63;9.20;;;20.30;99.70;;;;;;4976866;28;20125;-60
2022/08/06 05:49:39;;;;;;;21.75;9.48;;;20.40;98.10;;;;;;4976911;28;20362;-60
2022/08/06 05:52:12;;;;;;;15.43;9.75;;;20.60;97.30;;;;;;4976966;28;20030;-60
2022/08/06 05:54:58;;;;;;;15.32;9.68;;;20.80;96.50;;;;;;4976780;28;20104;-59
2022/08/06 05:57:31;;;;;;;20.00;9.57;;;21.00;96.40;;;;;;4976691;28;20424;-59
2022/08/06 06:00:04;;;;;;;19.38;9.48;;;21.10;95.50;;;;;;4992916;28;20031;-59
2022/08/06 06:02:31;;;;;;;15.40;9.52;;;21.30;94.60;;;;;;4996061;28;20030;-59
2022/08/06 06:04:58;;;;;;;18.85;10.32;;;21.40;93.70;;;;;;4995871;28;20054;-60
2022/08/06 06:07:24;;;;;;;26.65;11.35;;;21.60;93.00;;;;;;4996088;28;20341;-60
2022/08/06 06:09:52;;;;;;;16.40;9.63;;;21.80;92.20;;;;;;4989090;28;20114;-59
2022/08/06 06:12:18;;;;;;;23.55;9.68;;;21.90;91.00;;;;;;4976648;28;20065;-60
2022/08/06 06:14:48;;;;;;;21.65;10.20;;;22.00;90.40;;;;;;4976433;28;20392;-60
2022/08/06 06:17:32;;;;;;;18.50;9.75;;;22.20;90.20;;;;;;4976412;28;20031;-59
2022/08/06 06:20:28;;;;;;;16.10;10.48;;;22.40;89.60;;;;;;4976238;28;20031;-60
2022/08/06 06:23:23;;;;;;;25.80;11.75;;;22.60;87.20;;;;;;4976338;28;20384;-60
2022/08/06 06:25:58;;;;;;;13.95;9.55;;;22.80;85.50;;;;;;4975393;28;20023;-60
2022/08/06 06:28:34;;;;;;;29.58;10.98;;;23.00;82.80;;;;;;4976142;28;20031;-60
2022/08/06 06:31:13;;;;;;;15.85;9.00;;;23.20;81.00;;;;;;4976072;28;20331;-60
2022/08/06 06:33:43;;;;;;;17.63;8.88;;;23.30;77.30;;;;;;4976172;28;20038;-60
2022/08/06 06:36:32;;;;;;;11.57;8.43;;;23.50;75.80;;;;;;4976136;28;20022;-60
2022/08/06 06:39:05;;;;;;;15.98;8.90;;;23.70;73.40;;;;;;4975926;28;20033;-60
2022/08/06 06:41:43;;;;;;;12.20;8.43;;;23.90;73.30;;;;;;4976240;28;20042;-60
2022/08/06 06:44:23;;;;;;;27.50;9.57;;;24.10;72.40;;;;;;4976334;28;20034;-60
2022/08/06 06:47:01;;;;;;;13.93;9.10;;;24.40;71.00;;;;;;4976033;28;20469;-60
2022/08/06 06:49:37;;;;;;;13.93;8.60;;;24.70;69.10;;;;;;4975963;28;20034;-60
2022/08/06 06:52:19;;;;;;;13.48;8.07;;;25.00;67.70;;;;;;4976052;28;20089;-60
2022/08/06 06:54:51;;;;;;;14.52;8.38;;;25.30;65.00;;;;;;4975855;28;20457;-60
2022/08/06 06:57:25;;;;;;;19.85;9.85;;;25.50;64.30;;;;;;4975835;28;20109;-60
2022/08/06 06:59:53;;;;;;;19.30;7.95;;;25.80;64.40;;;;;;4991098;28;20038;-60
2022/08/06 07:02:28;;;;;;;13.02;7.25;;;26.00;61.80;;;;;;4995085;28;20022;-60
2022/08/06 07:04:56;;;;;;;17.63;8.63;;;26.30;62.10;;;;;;4994876;28;20042;-60
2022/08/06 07:07:23;;;;;;;18.90;7.72;;;26.60;61.20;;;;;;4995321;28;20472;-60
2022/08/06 07:09:53;;;;;;;19.48;7.45;;;27.00;60.00;;;;;;4988384;28;20023;-60
2022/08/06 07:12:22;;;;;;;15.63;7.53;;;27.30;58.20;;;;;;4958244;28;20035;-60
2022/08/06 07:14:50;;;;;;;15.07;7.53;;;27.40;56.20;;;;;;4975561;28;20042;-60
2022/08/06 07:17:18;;;;;;;13.40;7.88;;;27.80;56.20;;;;;;4975651;28;20319;-60
2022/08/06 07:19:48;;;;;;;24.45;8.50;;;28.10;55.60;;;;;;4975374;28;20023;-60
2022/08/06 07:22:15;;;;;;;15.60;8.48;;;28.40;53.60;;;;;;4975561;28;20049;-60
2022/08/06 07:24:42;;;;;;;12.65;7.20;;;28.80;52.40;;;;;;4975602;28;20045;-60
2022/08/06 07:27:10;;;;;;;13.88;7.53;;;29.00;51.70;;;;;;4976022;28;20027;-60
2022/08/06 07:29:37;;;;;;;15.75;7.28;;;29.20;50.70;;;;;;4975439;28;20033;-60
2022/08/06 07:32:04;;;;;;;13.05;7.75;;;29.70;50.50;;;;;;4975504;28;20062;-61
2022/08/06 07:34:30;;;;;;;14.82;6.57;;;30.00;48.70;;;;;;4975453;28;20572;-60
2022/08/06 07:36:57;;;;;;;14.82;6.72;;;30.00;48.70;;;;;;4977620;28;20031;-61
2022/08/06 07:39:37;;;;;;;15.02;6.43;;;30.30;47.90;;;;;;4979051;28;20052;-60
2022/08/06 07:42:09;;;;;;;16.48;6.40;;;30.60;47.20;;;;;;4979198;28;20034;-61
2022/08/06 07:44:38;;;;;;;20.13;7.03;;;31.10;46.70;;;;;;4978989;28;20037;-61
2022/08/06 07:47:06;;;;;;;21.35;7.85;;;31.20;44.50;;;;;;4979112;28;20023;-61
2022/08/06 07:49:39;;;;;;;17.40;7.43;;;31.40;44.70;;;;;;4979099;28;20030;-61
2022/08/06 07:52:07;;;;;;;20.50;7.82;;;31.70;44.00;;;;;;4978867;28;20034;-61
2022/08/06 07:54:33;;;;;;;14.50;7.40;;;32.20;46.10;;;;;;4978772;28;20042;-61
2022/08/06 07:56:59;;;;;;;23.33;7.70;;;32.10;41.60;;;;;;4978986;28;20037;-61
2022/08/06 07:59:26;;;;;;;13.98;7.43;;;32.00;41.10;;;;;;4990807;28;20053;-61
2022/08/06 08:01:52;;;;;;;17.75;5.93;;;32.40;42.00;;;;;;4998426;28;20548;-61
2022/08/06 08:07:05;;;;;;;14.00;6.63;;;32.90;40.20;;;;;;4998252;28;20026;-61
2022/08/06 08:09:32;;;;;;;17.67;8.07;;;33.30;39.80;;;;;;4993918;28;20627;-61
2022/08/06 08:11:58;;;;;;;21.05;7.68;;;33.60;38.20;;;;;;4978705;28;20031;-61
2022/08/06 08:14:25;;;;;;;22.05;7.45;;;33.30;38.70;;;;;;4978660;28;20406;-61
2022/08/06 08:16:51;;;;;;;21.02;7.70;;;33.60;39.10;;;;;;4978677;28;20066;-62
2022/08/06 08:19:30;;;;;;;16.27;7.25;;;33.20;37.70;;;;;;4978232;28;20053;-61
2022/08/06 08:22:08;;;;;;;13.98;7.35;;;33.30;37.90;;;;;;4978741;28;20105;-62
2022/08/06 08:24:36;;;;;;;15.70;6.72;;;33.80;38.20;;;;;;4978640;28;20081;-62
2022/08/06 08:27:03;;;;;;;13.88;6.82;;;34.00;36.90;;;;;;4978393;28;20519;-62
2022/08/06 08:29:29;;;;;;;13.60;6.65;;;34.30;36.70;;;;;;4978216;28;20472;-62
2022/08/06 08:31:56;;;;;;;21.75;6.95;;;33.60;36.10;;;;;;4978372;28;20444;-62
2022/08/06 08:34:22;;;;;;;10.55;6.25;;;33.80;38.20;;;;;;4978342;28;20037;-62
2022/08/06 08:36:48;;;;;;;18.23;6.13;;;34.40;36.00;;;;;;4978381;28;20039;-62
2022/08/06 08:39:17;;;;;;;14.43;6.57;;;34.80;36.60;;;;;;4978387;28;20085;-62
2022/08/06 08:42:09;;;;;;;13.98;6.25;;;35.10;35.00;;;;;;4977986;28;20034;-62
2022/08/06 08:44:35;;;;;;;18.02;6.15;;;35.60;34.90;;;;;;4977991;28;20030;-62
2022/08/06 08:47:03;;;;;;;13.15;6.07;;;35.80;34.00;;;;;;4978155;28;20039;-62
2022/08/06 08:49:46;;;;;;;10.35;5.97;;;35.90;34.10;;;;;;4976999;28;20050;-62
2022/08/06 08:52:19;;;;;;;10.20;6.38;;;36.30;32.70;;;;;;4977934;28;20039;-62
2022/08/06 08:54:50;;;;;;;15.25;5.85;;;36.30;33.70;;;;;;4977885;28;20037;-62
2022/08/06 08:57:16;;;;;;;15.20;6.40;;;36.80;33.20;;;;;;4977935;28;20035;-62
2022/08/06 08:59:42;;;;;;;9.57;6.10;;;37.10;31.20;;;;;;4992104;28;20080;-62
2022/08/06 09:02:13;;;;;;;7.70;5.20;;;37.20;30.90;;;;;;4997247;28;20034;-62
2022/08/06 09:04:40;;;;;;;8.77;5.53;;;37.20;31.20;;;;;;4997033;28;20042;-63
2022/08/06 09:07:08;;;;;;;11.88;5.22;;;37.60;30.10;;;;;;4996988;28;20492;-62
2022/08/06 09:09:38;;;;;;;11.23;5.90;;;37.50;30.80;;;;;;4992285;28;20462;-63
2022/08/06 09:12:05;;;;;;;7.80;5.25;;;37.70;29.60;;;;;;4977731;28;20043;-63
2022/08/06 09:14:31;;;;;;;11.57;5.18;;;37.50;30.40;;;;;;4977542;28;20031;-63
2022/08/06 09:17:00;;;;;;;10.27;5.13;;;37.80;30.50;;;;;;4977495;28;20037;-63
2022/08/06 09:19:29;;;;;;;16.00;6.65;;;37.80;30.90;;;;;;4960312;28;20039;-63
2022/08/06 09:21:58;;;;;;;12.43;6.07;;;38.20;29.50;;;;;;4977558;28;20023;-63
2022/08/06 09:24:25;;;;;;;12.45;5.82;;;37.90;29.90;;;;;;4977433;28;20061;-63
2022/08/06 09:27:06;;;;;;;9.80;5.93;;;37.70;29.50;;;;;;4977315;28;20031;-63
2022/08/06 09:29:33;;;;;;;18.83;6.38;;;37.60;29.00;;;;;;4977298;28;20077;-63
2022/08/06 09:32:00;;;;;;;11.07;5.53;;;38.00;29.20;;;;;;4977204;28;20031;-63
2022/08/06 09:34:52;;;;;;;15.38;5.43;;;38.40;29.50;;;;;;4977334;28;20034;-63
2022/08/06 09:37:27;;;;;;;12.15;5.43;;;39.00;28.10;;;;;;4973795;28;20069;-63
2022/08/06 09:39:53;;;;;;;14.77;6.25;;;39.10;26.50;;;;;;4977105;28;20037;-63
2022/08/06 09:42:47;;;;;;;13.40;5.70;;;38.40;27.40;;;;;;4976924;28;20114;-63
2022/08/06 09:45:15;;;;;;;14.57;6.30;;;38.70;27.20;;;;;;4977040;28;20106;-63
2022/08/06 09:47:41;;;;;;;13.30;5.43;;;38.50;27.30;;;;;;4977040;28;20465;-63
2022/08/06 09:50:08;;;;;;;16.45;6.57;;;38.90;27.00;;;;;;4977061;28;20027;-63
2022/08/06 09:52:34;;;;;;;7.38;4.93;;;39.10;28.00;;;;;;4976829;28;20046;-63
2022/08/06 09:55:00;;;;;;;12.82;5.65;;;39.30;27.10;;;;;;4976954;28;20391;-63
2022/08/06 09:57:42;;;;;;;11.77;5.68;;;39.50;26.40;;;;;;4976849;28;20038;-63
2022/08/06 10:00:09;;;;;;;8.98;4.55;;;40.00;26.70;;;;;;4994375;28;20041;-63
2022/08/06 10:02:35;;;;;;;8.80;5.20;;;39.70;24.20;;;;;;4996217;28;20472;-63
2022/08/06 10:05:13;;;;;;;4.82;3.08;;;39.50;25.20;;;;;;4995967;28;20046;-64
2022/08/06 10:07:40;;;;;;;12.27;3.25;;;39.20;23.70;;;;;;4996109;28;20377;-63
2022/08/06 10:10:07;;;;;;;4.40;2.35;;;38.80;22.90;;;;;;4987196;28;20118;-63
2022/08/06 10:12:33;;;;;;;15.82;3.65;;;38.60;23.60;;;;;;4976409;28;20066;-63
2022/08/06 10:15:00;;;;;;;13.60;3.20;;;39.60;23.50;;;;;;4976395;28;20030;-63
2022/08/06 10:17:26;;;;;;;6.30;2.72;;;40.30;22.80;;;;;;4976494;28;20085;-63
2022/08/06 10:20:08;;;;;;;5.43;2.78;;;39.90;22.70;;;;;;4976303;28;20034;-63
2022/08/06 10:22:35;;;;;;;5.03;3.35;;;40.20;22.30;;;;;;4976382;28;20033;-63
2022/08/06 10:25:03;;;;;;;6.18;2.60;;;39.30;22.10;;;;;;4976304;28;20452;-63
2022/08/06 10:27:34;;;;;;;5.85;3.30;;;38.70;22.90;;;;;;4976105;28;20543;-63
2022/08/06 10:30:09;;;;;;;6.13;2.83;;;39.00;23.80;;;;;;4976461;28;20084;-64
2022/08/06 10:32:48;;;;;;;5.35;2.97;;;39.50;22.10;;;;;;4959111;28;20070;-63
2022/08/06 10:35:17;;;;;;;5.73;2.60;;;39.70;22.50;;;;;;4976054;28;20031;-63
2022/08/06 10:37:47;;;;;;;14.25;5.10;;;38.40;23.20;;;;;;4976378;28;20757;-64
2022/08/06 10:40:15;;;;;;;5.70;2.63;;;38.70;24.10;;;;;;4976585;28;20468;-64
2022/08/06 10:42:41;;;;;;;5.57;3.00;;;39.50;23.00;;;;;;4975760;28;20035;-63
2022/08/06 10:45:11;;;;;;;5.82;3.88;;;40.30;23.40;;;;;;4976135;28;20033;-63
2022/08/06 10:47:39;;;;;;;8.50;3.65;;;40.40;23.60;;;;;;4976035;28;20030;-64
2022/08/06 10:50:06;;;;;;;19.20;4.50;;;40.40;23.10;;;;;;4976042;28;20027;-64
2022/08/06 10:52:32;;;;;;;11.00;3.80;;;40.00;21.90;;;;;;4975969;28;20459;-64
2022/08/06 10:54:59;;;;;;;9.50;3.42;;;39.80;21.90;;;;;;4975730;28;20469;-64
2022/08/06 10:57:27;;;;;;;2.58;2.38;;;40.90;22.50;;;;;;4975736;28;20391;-64
2022/08/06 10:59:53;;;;;;;5.18;2.38;;;41.30;22.70;;;;;;4991260;28;20120;-64
2022/08/06 11:02:48;;;;;;;4.28;2.53;;;41.60;22.00;;;;;;4995199;28;20034;-64
2022/08/06 11:05:25;;;;;;;3.05;2.75;;;42.00;21.00;;;;;;4995067;28;20044;-64
2022/08/06 11:08:24;;;;;;;9.85;3.60;;;41.70;21.00;;;;;;4994992;28;20037;-64
2022/08/06 11:10:50;;;;;;;;;;;40.00;21.50;;;;;;4980144;28;20501;-63
2022/08/06 11:13:38;;;;;;;11.18;3.53;;;40.80;21.30;;;;;;4975691;28;19968;-64
2022/08/06 11:16:04;;;;;;;7.18;3.55;;;40.30;20.80;;;;;;4975419;28;20026;-64
2022/08/06 11:18:30;;;;;;;7.20;3.53;;;39.70;21.40;;;;;;4975408;28;20031;-64
2022/08/06 11:20:59;;;;;;;10.52;3.05;;;40.00;21.70;;;;;;4975524;28;20027;-64
2022/08/06 11:23:27;;;;;;;;;;;40.20;22.10;;;;;;4975993;28;20038;-64
2022/08/06 11:25:56;;;;;;;7.28;3.15;;;39.40;22.70;;;;;;4975662;28;19960;-64
2022/08/06 11:28:31;;;;;;;5.57;3.40;;;39.70;23.50;;;;;;4975618;28;20500;-64
2022/08/06 11:31:01;;;;;;;5.90;2.75;;;40.30;21.70;;;;;;4975479;28;20027;-64
2022/08/06 11:33:32;;;;;;;6.72;3.20;;;40.90;21.30;;;;;;4975493;28;20041;-64
2022/08/06 11:36:00;;;;;;;16.83;3.67;;;41.00;20.90;;;;;;4975439;28;20221;-64
2022/08/06 11:38:47;;;;;;;4.32;2.40;;;41.20;20.90;;;;;;4975378;28;20034;-64
2022/08/06 11:41:24;;;;;;;7.65;2.88;;;41.60;20.50;;;;;;4975290;28;20026;-64
2022/08/06 11:43:53;;;;;;;5.47;2.67;;;41.30;20.80;;;;;;4975319;28;20393;-64
2022/08/06 11:46:24;;;;;;;5.90;2.90;;;40.90;21.40;;;;;;4975227;28;20030;-64
2022/08/06 11:48:59;;;;;;;4.20;3.00;;;41.00;21.00;;;;;;4975544;28;20038;-64
2022/08/06 11:51:48;;;;;;;8.85;4.40;;;41.40;20.90;;;;;;4975521;28;20105;-64
2022/08/06 11:54:27;;;;;;;7.03;2.80;;;39.30;21.10;;;;;;4975468;28;20181;-64
2022/08/06 11:57:04;;;;;;;7.55;3.20;;;39.20;22.10;;;;;;4975347;28;20054;-64
2022/08/06 11:59:37;;;;;;;9.80;3.70;;;39.50;22.10;;;;;;4987787;28;20029;-64
2022/08/06 12:02:09;;;;;;;15.05;4.35;;;40.20;22.10;;;;;;4994702;28;20054;-64
2022/08/06 12:04:35;;;;;;;10.52;4.15;;;39.70;22.70;;;;;;4994390;28;20051;-64
2022/08/06 12:07:26;;;;;;;8.05;3.30;;;40.30;22.50;;;;;;4994456;28;20030;-64
2022/08/06 12:10:22;;;;;;;5.32;3.33;;;40.10;22.10;;;;;;4987754;28;20026;-64
2022/08/06 12:12:50;;;;;;;5.28;3.13;;;40.30;22.20;;;;;;4948596;28;20051;-64
2022/08/06 12:15:16;;;;;;;6.35;3.35;;;41.00;21.60;;;;;;4975100;28;20037;-64
2022/08/06 12:17:55;;;;;;;5.85;2.47;;;41.40;21.20;;;;;;4975150;28;20058;-64
2022/08/06 12:20:39;;;;;;;17.67;6.00;;;41.30;20.60;;;;;;4974986;28;20049;-64
2022/08/06 12:23:11;;;;;;;10.23;4.22;;;40.50;21.90;;;;;;4975562;28;20051;-64
2022/08/06 12:25:53;;;;;;;6.43;3.53;;;39.90;22.00;;;;;;4978546;28;20448;-64
2022/08/06 12:28:20;;;;;;;4.07;2.95;;;38.40;22.90;;;;;;4978146;28;20102;-64
2022/08/06 12:30:50;;;;;;;9.65;4.40;;;39.20;24.20;;;;;;4978484;28;20027;-64
2022/08/06 12:33:18;;;;;;;8.43;3.13;;;40.00;23.30;;;;;;4978342;28;20034;-64
2022/08/06 12:35:49;;;;;;;7.82;2.50;;;40.40;22.50;;;;;;4978328;28;20102;-64
2022/08/06 12:38:14;;;;;;;10.63;4.57;;;40.00;21.80;;;;;;4978117;28;20029;-64
2022/08/06 12:40:50;;;;;;;4.35;3.00;;;39.40;22.00;;;;;;4978280;28;20113;-64
2022/08/06 12:43:16;;;;;;;5.22;2.88;;;38.90;21.90;;;;;;4978072;28;20050;-64
2022/08/06 12:45:42;;;;;;;5.38;3.00;;;38.80;22.10;;;;;;4978269;28;20035;-64
2022/08/06 12:48:11;;;;;;;9.30;3.17;;;39.10;22.80;;;;;;4978268;28;20031;-64
2022/08/06 12:50:39;;;;;;;4.93;3.35;;;40.10;22.40;;;;;;4978046;28;20029;-64
2022/08/06 12:53:17;;;;;;;3.50;2.88;;;39.60;22.00;;;;;;4978111;28;20031;-64
2022/08/06 12:55:45;;;;;;;4.43;2.90;;;39.60;21.30;;;;;;4978008;28;20030;-64
2022/08/06 12:58:21;;;;;;;9.23;3.90;;;39.30;21.80;;;;;;4979819;28;20027;-64